sensor_id;sensor_type;location;lat;lon;timestamp;P1;durP1;ratioP1;P2;durP2;ratioP2
74660;SDS011;63191;39.566;2.654;2023-04-01T00:01:03;9.70;;;2.40;;
74660;SDS011;63191;39.566;2.654;2023-04-01T00:03:31;7.30;;;2.10;;
74660;SDS011;63191;39.566;2.654;2023-04-01T00:05:59;9.20;;;2.20;;
74660;SDS011;63191;39.566;2.654;2023-04-01T00:08:26;14.60;;;2.90;;
74660;SDS011;63191;39.566;2.654;2023-04-01T00:10:53;9.10;;;2.20;;
74660;SDS011;63191;39.566;2.654;2023-04-01T00:13:19;10.50;;;2.80;;
74660;SDS011;63191;39.566;2.654;2023-04-01T00:15:46;13.40;;;2.50;;
74660;SDS011;63191;39.566;2.654;2023-04-01T00:18:12;10.90;;;2.50;;
74660;SDS011;63191;39.566;2.654;2023-04-01T00:20:38;9.70;;;3.00;;
74660;SDS011;63191;39.566;2.654;2023-04-01T00:23:04;8.50;;;2.40;;
74660;SDS011;63191;39.566;2.654;2023-04-01T00:25:32;9.10;;;2.00;;
74660;SDS011;63191;39.566;2.654;2023-04-01T00:27:58;7.50;;;2.20;;
74660;SDS011;63191;39.566;2.654;2023-04-01T00:30:24;9.90;;;2.70;;
74660;SDS011;63191;39.566;2.654;2023-04-01T00:32:54;8.50;;;2.40;;
74660;SDS011;63191;39.566;2.654;2023-04-01T00:35:20;11.70;;;2.50;;
74660;SDS011;63191;39.566;2.654;2023-04-01T00:37:46;9.60;;;2.70;;
74660;SDS011;63191;39.566;2.654;2023-04-01T00:40:38;10.20;;;2.50;;
74660;SDS011;63191;39.566;2.654;2023-04-01T00:43:17;11.70;;;3.10;;
74660;SDS011;63191;39.566;2.654;2023-04-01T00:45:47;14.10;;;3.50;;
74660;SDS011;63191;39.566;2.654;2023-04-01T00:48:22;8.30;;;2.70;;
74660;SDS011;63191;39.566;2.654;2023-04-01T00:51:01;10.20;;;3.00;;
74660;SDS011;63191;39.566;2.654;2023-04-01T00:53:31;11.40;;;3.40;;
74660;SDS011;63191;39.566;2.654;2023-04-01T00:56:02;16.50;;;3.60;;
74660;SDS011;63191;39.566;2.654;2023-04-01T00:58:35;15.10;;;3.60;;
74660;SDS011;63191;39.566;2.654;2023-04-01T01:01:02;16.60;;;3.40;;
74660;SDS011;63191;39.566;2.654;2023-04-01T01:03:28;10.00;;;3.10;;
74660;SDS011;63191;39.566;2.654;2023-04-01T01:11:43;10.20;;;2.60;;
74660;SDS011;63191;39.566;2.654;2023-04-01T01:17:01;11.80;;;2.70;;
74660;SDS011;63191;39.566;2.654;2023-04-01T01:25:32;9.50;;;3.00;;
74660;SDS011;63191;39.566;2.654;2023-04-01T01:28:32;12.50;;;2.90;;
74660;SDS011;63191;39.566;2.654;2023-04-01T01:31:25;11.10;;;3.10;;
74660;SDS011;63191;39.566;2.654;2023-04-01T01:37:17;8.50;;;3.00;;
74660;SDS011;63191;39.566;2.654;2023-04-01T01:39:49;8.60;;;2.50;;
74660;SDS011;63191;39.566;2.654;2023-04-01T01:42:27;12.00;;;3.60;;
74660;SDS011;63191;39.566;2.654;2023-04-01T01:44:55;10.50;;;3.10;;
74660;SDS011;63191;39.566;2.654;2023-04-01T01:47:22;9.60;;;3.10;;
74660;SDS011;63191;39.566;2.654;2023-04-01T01:49:49;12.40;;;3.50;;
74660;SDS011;63191;39.566;2.654;2023-04-01T01:52:17;10.30;;;3.50;;
74660;SDS011;63191;39.566;2.654;2023-04-01T01:54:51;13.50;;;3.50;;
74660;SDS011;63191;39.566;2.654;2023-04-01T01:57:24;12.60;;;3.70;;
74660;SDS011;63191;39.566;2.654;2023-04-01T01:59:56;12.90;;;3.40;;
74660;SDS011;63191;39.566;2.654;2023-04-01T02:02:25;14.60;;;3.90;;
74660;SDS011;63191;39.566;2.654;2023-04-01T02:04:52;11.50;;;3.40;;
74660;SDS011;63191;39.566;2.654;2023-04-01T02:07:26;11.70;;;3.30;;
74660;SDS011;63191;39.566;2.654;2023-04-01T02:09:54;16.00;;;3.90;;
74660;SDS011;63191;39.566;2.654;2023-04-01T02:12:21;12.70;;;3.40;;
74660;SDS011;63191;39.566;2.654;2023-04-01T02:15:00;12.70;;;4.10;;
74660;SDS011;63191;39.566;2.654;2023-04-01T02:17:32;13.50;;;4.20;;
74660;SDS011;63191;39.566;2.654;2023-04-01T02:22:38;13.90;;;4.10;;
74660;SDS011;63191;39.566;2.654;2023-04-01T02:25:11;12.80;;;4.30;;
74660;SDS011;63191;39.566;2.654;2023-04-01T02:27:40;13.10;;;3.50;;
74660;SDS011;63191;39.566;2.654;2023-04-01T02:30:09;12.90;;;3.80;;
74660;SDS011;63191;39.566;2.654;2023-04-01T02:32:37;13.20;;;4.30;;
74660;SDS011;63191;39.566;2.654;2023-04-01T02:35:11;13.10;;;3.70;;
74660;SDS011;63191;39.566;2.654;2023-04-01T02:37:40;14.60;;;4.20;;
74660;SDS011;63191;39.566;2.654;2023-04-01T02:40:11;13.40;;;3.90;;
74660;SDS011;63191;39.566;2.654;2023-04-01T02:42:37;12.10;;;3.70;;
74660;SDS011;63191;39.566;2.654;2023-04-01T02:45:04;15.40;;;4.60;;
74660;SDS011;63191;39.566;2.654;2023-04-01T02:47:30;14.30;;;4.30;;
74660;SDS011;63191;39.566;2.654;2023-04-01T02:49:56;13.70;;;4.20;;
74660;SDS011;63191;39.566;2.654;2023-04-01T02:52:27;17.50;;;4.40;;
74660;SDS011;63191;39.566;2.654;2023-04-01T02:54:55;14.60;;;4.20;;
74660;SDS011;63191;39.566;2.654;2023-04-01T02:57:21;15.20;;;4.30;;
74660;SDS011;63191;39.566;2.654;2023-04-01T02:59:48;17.80;;;4.30;;
74660;SDS011;63191;39.566;2.654;2023-04-01T03:02:14;16.70;;;4.40;;
74660;SDS011;63191;39.566;2.654;2023-04-01T03:04:40;17.50;;;4.40;;
74660;SDS011;63191;39.566;2.654;2023-04-01T03:07:06;13.80;;;4.30;;
74660;SDS011;63191;39.566;2.654;2023-04-01T03:09:33;17.10;;;4.80;;
74660;SDS011;63191;39.566;2.654;2023-04-01T03:11:59;18.30;;;4.70;;
74660;SDS011;63191;39.566;2.654;2023-04-01T03:14:25;13.20;;;3.80;;
74660;SDS011;63191;39.566;2.654;2023-04-01T03:16:51;10.90;;;3.90;;
74660;SDS011;63191;39.566;2.654;2023-04-01T03:19:16;14.30;;;4.40;;
74660;SDS011;63191;39.566;2.654;2023-04-01T03:21:42;13.40;;;4.10;;
74660;SDS011;63191;39.566;2.654;2023-04-01T03:24:07;15.00;;;4.20;;
74660;SDS011;63191;39.566;2.654;2023-04-01T03:26:33;17.80;;;4.70;;
74660;SDS011;63191;39.566;2.654;2023-04-01T03:28:59;13.50;;;4.00;;
74660;SDS011;63191;39.566;2.654;2023-04-01T03:31:25;17.30;;;5.20;;
74660;SDS011;63191;39.566;2.654;2023-04-01T03:33:51;12.80;;;4.00;;
74660;SDS011;63191;39.566;2.654;2023-04-01T03:36:17;14.00;;;4.40;;
74660;SDS011;63191;39.566;2.654;2023-04-01T03:38:44;12.90;;;3.90;;
74660;SDS011;63191;39.566;2.654;2023-04-01T03:41:17;13.70;;;4.80;;
74660;SDS011;63191;39.566;2.654;2023-04-01T03:43:43;12.80;;;4.00;;
74660;SDS011;63191;39.566;2.654;2023-04-01T03:46:09;14.50;;;4.00;;
74660;SDS011;63191;39.566;2.654;2023-04-01T03:48:35;15.40;;;4.30;;
74660;SDS011;63191;39.566;2.654;2023-04-01T03:51:01;15.60;;;3.80;;
74660;SDS011;63191;39.566;2.654;2023-04-01T03:53:27;13.50;;;3.80;;
74660;SDS011;63191;39.566;2.654;2023-04-01T03:55:53;11.20;;;4.10;;
74660;SDS011;63191;39.566;2.654;2023-04-01T03:58:19;16.10;;;4.60;;
74660;SDS011;63191;39.566;2.654;2023-04-01T04:00:45;12.50;;;4.10;;
74660;SDS011;63191;39.566;2.654;2023-04-01T04:03:11;15.50;;;4.80;;
74660;SDS011;63191;39.566;2.654;2023-04-01T04:05:37;13.90;;;4.10;;
74660;SDS011;63191;39.566;2.654;2023-04-01T04:08:03;17.20;;;4.40;;
74660;SDS011;63191;39.566;2.654;2023-04-01T04:10:29;17.10;;;4.30;;
74660;SDS011;63191;39.566;2.654;2023-04-01T04:12:55;14.00;;;4.60;;
74660;SDS011;63191;39.566;2.654;2023-04-01T04:15:22;12.90;;;3.90;;
74660;SDS011;63191;39.566;2.654;2023-04-01T04:17:48;18.40;;;5.00;;
74660;SDS011;63191;39.566;2.654;2023-04-01T04:20:15;15.20;;;5.10;;
74660;SDS011;63191;39.566;2.654;2023-04-01T04:22:40;12.00;;;3.70;;
74660;SDS011;63191;39.566;2.654;2023-04-01T04:25:07;12.50;;;4.00;;
74660;SDS011;63191;39.566;2.654;2023-04-01T04:27:33;14.40;;;4.20;;
74660;SDS011;63191;39.566;2.654;2023-04-01T04:30:00;15.60;;;4.20;;
74660;SDS011;63191;39.566;2.654;2023-04-01T04:32:26;15.20;;;4.00;;
74660;SDS011;63191;39.566;2.654;2023-04-01T04:34:51;14.50;;;3.60;;
74660;SDS011;63191;39.566;2.654;2023-04-01T04:37:17;15.40;;;4.30;;
74660;SDS011;63191;39.566;2.654;2023-04-01T04:39:43;19.00;;;3.90;;
74660;SDS011;63191;39.566;2.654;2023-04-01T04:42:08;15.60;;;4.20;;
74660;SDS011;63191;39.566;2.654;2023-04-01T04:44:34;18.10;;;5.40;;
74660;SDS011;63191;39.566;2.654;2023-04-01T04:47:01;15.20;;;4.30;;
74660;SDS011;63191;39.566;2.654;2023-04-01T04:49:27;14.90;;;4.70;;
74660;SDS011;63191;39.566;2.654;2023-04-01T04:51:54;14.30;;;4.50;;
74660;SDS011;63191;39.566;2.654;2023-04-01T04:54:20;17.50;;;4.30;;
74660;SDS011;63191;39.566;2.654;2023-04-01T04:56:45;14.40;;;3.90;;
74660;SDS011;63191;39.566;2.654;2023-04-01T04:59:11;13.30;;;4.50;;
74660;SDS011;63191;39.566;2.654;2023-04-01T05:01:38;17.80;;;4.80;;
74660;SDS011;63191;39.566;2.654;2023-04-01T05:04:04;15.70;;;4.10;;
74660;SDS011;63191;39.566;2.654;2023-04-01T05:06:29;19.90;;;4.20;;
74660;SDS011;63191;39.566;2.654;2023-04-01T05:08:56;16.10;;;4.40;;
74660;SDS011;63191;39.566;2.654;2023-04-01T05:11:22;16.40;;;5.00;;
74660;SDS011;63191;39.566;2.654;2023-04-01T05:13:48;18.60;;;4.90;;
74660;SDS011;63191;39.566;2.654;2023-04-01T05:16:18;15.30;;;4.50;;
74660;SDS011;63191;39.566;2.654;2023-04-01T05:18:45;14.00;;;3.30;;
74660;SDS011;63191;39.566;2.654;2023-04-01T05:21:13;17.90;;;4.10;;
74660;SDS011;63191;39.566;2.654;2023-04-01T05:23:40;16.10;;;3.30;;
74660;SDS011;63191;39.566;2.654;2023-04-01T05:26:09;11.70;;;2.90;;
74660;SDS011;63191;39.566;2.654;2023-04-01T05:28:36;11.80;;;3.30;;
74660;SDS011;63191;39.566;2.654;2023-04-01T05:31:04;14.40;;;3.80;;
74660;SDS011;63191;39.566;2.654;2023-04-01T05:33:30;15.10;;;3.40;;
74660;SDS011;63191;39.566;2.654;2023-04-01T05:36:06;14.40;;;3.80;;
74660;SDS011;63191;39.566;2.654;2023-04-01T05:38:35;15.20;;;3.80;;
74660;SDS011;63191;39.566;2.654;2023-04-01T05:41:02;13.60;;;4.30;;
74660;SDS011;63191;39.566;2.654;2023-04-01T05:43:28;19.60;;;5.80;;
74660;SDS011;63191;39.566;2.654;2023-04-01T05:45:55;16.80;;;4.70;;
74660;SDS011;63191;39.566;2.654;2023-04-01T05:48:21;14.80;;;4.00;;
74660;SDS011;63191;39.566;2.654;2023-04-01T05:50:47;18.50;;;4.70;;
74660;SDS011;63191;39.566;2.654;2023-04-01T05:53:13;16.10;;;4.70;;
74660;SDS011;63191;39.566;2.654;2023-04-01T05:55:38;18.10;;;4.90;;
74660;SDS011;63191;39.566;2.654;2023-04-01T05:58:04;19.70;;;6.60;;
74660;SDS011;63191;39.566;2.654;2023-04-01T06:00:30;17.60;;;4.70;;
74660;SDS011;63191;39.566;2.654;2023-04-01T06:02:58;17.00;;;4.80;;
74660;SDS011;63191;39.566;2.654;2023-04-01T06:05:29;16.90;;;4.40;;
74660;SDS011;63191;39.566;2.654;2023-04-01T06:07:59;17.80;;;6.80;;
74660;SDS011;63191;39.566;2.654;2023-04-01T06:22:02;16.60;;;5.20;;
74660;SDS011;63191;39.566;2.654;2023-04-01T06:24:39;20.70;;;5.10;;
74660;SDS011;63191;39.566;2.654;2023-04-01T06:27:37;14.90;;;5.00;;
74660;SDS011;63191;39.566;2.654;2023-04-01T06:33:04;17.30;;;4.90;;
74660;SDS011;63191;39.566;2.654;2023-04-01T06:35:44;14.90;;;5.00;;
74660;SDS011;63191;39.566;2.654;2023-04-01T06:38:46;16.70;;;4.60;;
74660;SDS011;63191;39.566;2.654;2023-04-01T06:41:52;18.80;;;5.30;;
74660;SDS011;63191;39.566;2.654;2023-04-01T06:47:00;17.80;;;5.40;;
74660;SDS011;63191;39.566;2.654;2023-04-01T06:50:00;16.50;;;5.70;;
74660;SDS011;63191;39.566;2.654;2023-04-01T06:52:48;18.70;;;5.60;;
74660;SDS011;63191;39.566;2.654;2023-04-01T06:58:05;16.40;;;5.30;;
74660;SDS011;63191;39.566;2.654;2023-04-01T07:00:39;18.00;;;5.60;;
74660;SDS011;63191;39.566;2.654;2023-04-01T07:06:05;16.80;;;5.50;;
74660;SDS011;63191;39.566;2.654;2023-04-01T07:08:37;16.60;;;6.10;;
74660;SDS011;63191;39.566;2.654;2023-04-01T07:11:05;14.90;;;5.90;;
74660;SDS011;63191;39.566;2.654;2023-04-01T07:14:02;16.80;;;5.80;;
74660;SDS011;63191;39.566;2.654;2023-04-01T07:16:43;18.60;;;7.50;;
74660;SDS011;63191;39.566;2.654;2023-04-01T07:19:18;12.00;;;5.60;;
74660;SDS011;63191;39.566;2.654;2023-04-01T07:24:53;14.30;;;5.10;;
74660;SDS011;63191;39.566;2.654;2023-04-01T07:27:21;12.80;;;5.40;;
74660;SDS011;63191;39.566;2.654;2023-04-01T07:29:48;14.90;;;5.90;;
74660;SDS011;63191;39.566;2.654;2023-04-01T07:32:54;15.10;;;5.80;;
74660;SDS011;63191;39.566;2.654;2023-04-01T07:35:31;16.70;;;5.10;;
74660;SDS011;63191;39.566;2.654;2023-04-01T07:41:30;14.80;;;4.50;;
74660;SDS011;63191;39.566;2.654;2023-04-01T07:47:13;13.10;;;4.60;;
74660;SDS011;63191;39.566;2.654;2023-04-01T07:53:14;19.30;;;5.80;;
74660;SDS011;63191;39.566;2.654;2023-04-01T07:55:50;14.50;;;4.40;;
74660;SDS011;63191;39.566;2.654;2023-04-01T08:06:45;20.50;;;6.20;;
74660;SDS011;63191;39.566;2.654;2023-04-01T08:12:37;16.70;;;5.30;;
74660;SDS011;63191;39.566;2.654;2023-04-01T08:20:48;14.50;;;5.00;;
74660;SDS011;63191;39.566;2.654;2023-04-01T08:23:19;17.20;;;5.80;;
74660;SDS011;63191;39.566;2.654;2023-04-01T08:26:15;11.30;;;3.80;;
74660;SDS011;63191;39.566;2.654;2023-04-01T08:29:06;16.40;;;4.90;;
74660;SDS011;63191;39.566;2.654;2023-04-01T08:32:03;16.80;;;5.40;;
74660;SDS011;63191;39.566;2.654;2023-04-01T08:34:58;15.50;;;5.00;;
74660;SDS011;63191;39.566;2.654;2023-04-01T08:37:41;15.60;;;4.90;;
74660;SDS011;63191;39.566;2.654;2023-04-01T08:40:34;14.40;;;4.80;;
74660;SDS011;63191;39.566;2.654;2023-04-01T08:43:21;17.90;;;4.70;;
74660;SDS011;63191;39.566;2.654;2023-04-01T08:52:18;15.60;;;5.40;;
74660;SDS011;63191;39.566;2.654;2023-04-01T08:55:27;16.70;;;5.20;;
74660;SDS011;63191;39.566;2.654;2023-04-01T09:00:50;17.80;;;5.20;;
74660;SDS011;63191;39.566;2.654;2023-04-01T09:16:51;19.00;;;5.30;;
74660;SDS011;63191;39.566;2.654;2023-04-01T09:22:22;14.70;;;4.00;;
74660;SDS011;63191;39.566;2.654;2023-04-01T09:40:41;12.00;;;2.70;;
74660;SDS011;63191;39.566;2.654;2023-04-01T10:00:08;15.40;;;3.30;;
74660;SDS011;63191;39.566;2.654;2023-04-01T10:11:59;12.00;;;2.40;;
74660;SDS011;63191;39.566;2.654;2023-04-01T10:20:34;14.30;;;3.40;;
74660;SDS011;63191;39.566;2.654;2023-04-01T10:23:21;10.10;;;2.80;;
74660;SDS011;63191;39.566;2.654;2023-04-01T10:26:29;14.20;;;3.20;;
74660;SDS011;63191;39.566;2.654;2023-04-01T10:36:54;14.40;;;3.90;;
74660;SDS011;63191;39.566;2.654;2023-04-01T10:48:28;13.10;;;3.60;;
74660;SDS011;63191;39.566;2.654;2023-04-01T10:54:13;11.80;;;3.20;;
74660;SDS011;63191;39.566;2.654;2023-04-01T10:56:58;13.30;;;3.90;;
74660;SDS011;63191;39.566;2.654;2023-04-01T11:23:29;10.60;;;3.80;;
74660;SDS011;63191;39.566;2.654;2023-04-01T11:29:15;11.90;;;4.00;;
74660;SDS011;63191;39.566;2.654;2023-04-01T11:37:57;15.20;;;4.20;;
74660;SDS011;63191;39.566;2.654;2023-04-01T11:40:55;13.70;;;4.50;;
74660;SDS011;63191;39.566;2.654;2023-04-01T11:43:32;11.80;;;3.50;;
74660;SDS011;63191;39.566;2.654;2023-04-01T11:46:12;12.30;;;4.20;;
74660;SDS011;63191;39.566;2.654;2023-04-01T11:49:02;13.00;;;4.10;;
74660;SDS011;63191;39.566;2.654;2023-04-01T11:51:47;13.70;;;4.80;;
74660;SDS011;63191;39.566;2.654;2023-04-01T12:02:29;11.70;;;3.50;;
74660;SDS011;63191;39.566;2.654;2023-04-01T12:05:07;11.30;;;3.50;;
74660;SDS011;63191;39.566;2.654;2023-04-01T12:11:29;13.10;;;5.10;;
74660;SDS011;63191;39.566;2.654;2023-04-01T12:16:59;11.30;;;4.50;;
74660;SDS011;63191;39.566;2.654;2023-04-01T12:33:56;12.10;;;5.50;;
74660;SDS011;63191;39.566;2.654;2023-04-01T12:46:04;13.10;;;7.30;;
74660;SDS011;63191;39.566;2.654;2023-04-01T12:52:11;11.90;;;7.50;;
74660;SDS011;63191;39.566;2.654;2023-04-01T12:58:43;15.70;;;8.70;;
74660;SDS011;63191;39.566;2.654;2023-04-01T13:01:43;14.20;;;8.90;;
74660;SDS011;63191;39.566;2.654;2023-04-01T13:16:28;12.00;;;7.80;;
74660;SDS011;63191;39.566;2.654;2023-04-01T13:19:08;12.70;;;8.20;;
74660;SDS011;63191;39.566;2.654;2023-04-01T13:22:48;14.00;;;7.30;;
74660;SDS011;63191;39.566;2.654;2023-04-01T13:30:26;12.80;;;7.30;;
74660;SDS011;63191;39.566;2.654;2023-04-01T13:33:06;13.30;;;6.40;;
74660;SDS011;63191;39.566;2.654;2023-04-01T13:39:02;9.80;;;4.80;;
74660;SDS011;63191;39.566;2.654;2023-04-01T13:42:15;9.80;;;3.80;;
74660;SDS011;63191;39.566;2.654;2023-04-01T13:57:59;11.50;;;3.10;;
74660;SDS011;63191;39.566;2.654;2023-04-01T14:03:54;11.40;;;3.20;;
74660;SDS011;63191;39.566;2.654;2023-04-01T14:06:46;11.20;;;3.20;;
74660;SDS011;63191;39.566;2.654;2023-04-01T14:15:07;12.50;;;2.50;;
74660;SDS011;63191;39.566;2.654;2023-04-01T14:20:38;13.50;;;3.30;;
74660;SDS011;63191;39.566;2.654;2023-04-01T14:29:13;13.50;;;3.40;;
74660;SDS011;63191;39.566;2.654;2023-04-01T14:32:16;12.00;;;3.00;;
74660;SDS011;63191;39.566;2.654;2023-04-01T14:35:22;12.00;;;2.90;;
74660;SDS011;63191;39.566;2.654;2023-04-01T14:50:29;13.70;;;2.80;;
74660;SDS011;63191;39.566;2.654;2023-04-01T14:55:58;14.20;;;2.90;;
74660;SDS011;63191;39.566;2.654;2023-04-01T14:58:46;13.10;;;3.70;;
74660;SDS011;63191;39.566;2.654;2023-04-01T15:01:47;12.10;;;3.10;;
74660;SDS011;63191;39.566;2.654;2023-04-01T15:04:43;13.20;;;2.90;;
74660;SDS011;63191;39.566;2.654;2023-04-01T15:08:00;12.80;;;2.70;;
74660;SDS011;63191;39.566;2.654;2023-04-01T15:10:47;10.30;;;2.60;;
74660;SDS011;63191;39.566;2.654;2023-04-01T15:19:23;13.00;;;3.10;;
74660;SDS011;63191;39.566;2.654;2023-04-01T15:22:27;11.60;;;3.00;;
74660;SDS011;63191;39.566;2.654;2023-04-01T15:28:05;13.00;;;2.80;;
74660;SDS011;63191;39.566;2.654;2023-04-01T15:34:20;12.70;;;3.20;;
74660;SDS011;63191;39.566;2.654;2023-04-01T15:37:07;14.40;;;2.90;;
74660;SDS011;63191;39.566;2.654;2023-04-01T15:42:43;14.60;;;3.50;;
74660;SDS011;63191;39.566;2.654;2023-04-01T15:52:05;17.90;;;3.40;;
74660;SDS011;63191;39.566;2.654;2023-04-01T15:55:11;21.50;;;6.60;;
74660;SDS011;63191;39.566;2.654;2023-04-01T15:58:01;17.60;;;3.70;;
74660;SDS011;63191;39.566;2.654;2023-04-01T16:00:49;15.50;;;3.70;;
74660;SDS011;63191;39.566;2.654;2023-04-01T16:06:48;12.60;;;2.70;;
74660;SDS011;63191;39.566;2.654;2023-04-01T16:10:04;13.50;;;2.70;;
74660;SDS011;63191;39.566;2.654;2023-04-01T16:18:36;13.50;;;3.30;;
74660;SDS011;63191;39.566;2.654;2023-04-01T16:21:42;16.60;;;3.60;;
74660;SDS011;63191;39.566;2.654;2023-04-01T16:24:43;15.30;;;3.50;;
74660;SDS011;63191;39.566;2.654;2023-04-01T16:38:40;15.10;;;3.10;;
74660;SDS011;63191;39.566;2.654;2023-04-01T16:41:38;15.90;;;3.40;;
74660;SDS011;63191;39.566;2.654;2023-04-01T16:44:28;19.70;;;4.30;;
74660;SDS011;63191;39.566;2.654;2023-04-01T16:47:14;10.90;;;2.80;;
74660;SDS011;63191;39.566;2.654;2023-04-01T16:50:05;18.20;;;3.90;;
74660;SDS011;63191;39.566;2.654;2023-04-01T17:01:49;14.70;;;3.20;;
74660;SDS011;63191;39.566;2.654;2023-04-01T17:13:37;17.20;;;3.30;;
74660;SDS011;63191;39.566;2.654;2023-04-01T17:19:37;14.40;;;3.10;;
74660;SDS011;63191;39.566;2.654;2023-04-01T17:25:27;13.40;;;3.00;;
74660;SDS011;63191;39.566;2.654;2023-04-01T17:28:17;13.90;;;2.60;;
74660;SDS011;63191;39.566;2.654;2023-04-01T17:33:47;11.00;;;2.30;;
74660;SDS011;63191;39.566;2.654;2023-04-01T17:45:26;11.10;;;2.60;;
74660;SDS011;63191;39.566;2.654;2023-04-01T17:48:03;11.40;;;2.30;;
74660;SDS011;63191;39.566;2.654;2023-04-01T18:01:52;13.50;;;2.50;;
74660;SDS011;63191;39.566;2.654;2023-04-01T18:04:41;15.90;;;2.70;;
74660;SDS011;63191;39.566;2.654;2023-04-01T18:10:17;16.20;;;3.00;;
74660;SDS011;63191;39.566;2.654;2023-04-01T18:22:36;16.00;;;2.70;;
74660;SDS011;63191;39.566;2.654;2023-04-01T18:25:55;12.80;;;2.60;;
74660;SDS011;63191;39.566;2.654;2023-04-01T18:28:43;15.80;;;3.70;;
74660;SDS011;63191;39.566;2.654;2023-04-01T18:31:18;14.20;;;3.40;;
74660;SDS011;63191;39.566;2.654;2023-04-01T18:36:38;15.10;;;2.80;;
74660;SDS011;63191;39.566;2.654;2023-04-01T18:39:41;16.50;;;2.90;;
74660;SDS011;63191;39.566;2.654;2023-04-01T18:47:57;12.80;;;2.90;;
74660;SDS011;63191;39.566;2.654;2023-04-01T18:50:56;14.90;;;3.10;;
74660;SDS011;63191;39.566;2.654;2023-04-01T18:53:31;12.90;;;2.90;;
74660;SDS011;63191;39.566;2.654;2023-04-01T18:56:04;12.70;;;2.10;;
74660;SDS011;63191;39.566;2.654;2023-04-01T18:58:58;14.80;;;2.90;;
74660;SDS011;63191;39.566;2.654;2023-04-01T19:02:00;14.30;;;2.60;;
74660;SDS011;63191;39.566;2.654;2023-04-01T19:04:38;16.60;;;3.00;;
74660;SDS011;63191;39.566;2.654;2023-04-01T19:07:33;11.80;;;2.50;;
74660;SDS011;63191;39.566;2.654;2023-04-01T19:19:25;10.00;;;2.70;;
74660;SDS011;63191;39.566;2.654;2023-04-01T19:21:59;15.00;;;2.70;;
74660;SDS011;63191;39.566;2.654;2023-04-01T19:28:07;18.00;;;3.40;;
74660;SDS011;63191;39.566;2.654;2023-04-01T19:36:29;12.10;;;3.00;;
74660;SDS011;63191;39.566;2.654;2023-04-01T19:38:58;14.70;;;3.60;;
74660;SDS011;63191;39.566;2.654;2023-04-01T19:45:05;14.10;;;2.80;;
74660;SDS011;63191;39.566;2.654;2023-04-01T19:48:18;11.00;;;2.10;;
74660;SDS011;63191;39.566;2.654;2023-04-01T19:51:07;11.70;;;2.80;;
74660;SDS011;63191;39.566;2.654;2023-04-01T19:56:19;11.60;;;2.60;;
74660;SDS011;63191;39.566;2.654;2023-04-01T19:59:05;14.40;;;3.20;;
74660;SDS011;63191;39.566;2.654;2023-04-01T20:01:47;14.30;;;2.90;;
74660;SDS011;63191;39.566;2.654;2023-04-01T20:04:22;15.00;;;3.10;;
74660;SDS011;63191;39.566;2.654;2023-04-01T20:07:19;15.30;;;3.10;;
74660;SDS011;63191;39.566;2.654;2023-04-01T20:09:57;9.30;;;1.90;;
74660;SDS011;63191;39.566;2.654;2023-04-01T20:13:03;13.70;;;2.70;;
74660;SDS011;63191;39.566;2.654;2023-04-01T20:15:34;12.60;;;3.10;;
74660;SDS011;63191;39.566;2.654;2023-04-01T20:18:25;15.60;;;3.70;;
74660;SDS011;63191;39.566;2.654;2023-04-01T20:20:57;11.70;;;2.30;;
74660;SDS011;63191;39.566;2.654;2023-04-01T20:23:41;15.40;;;4.10;;
74660;SDS011;63191;39.566;2.654;2023-04-01T20:26:20;16.90;;;3.50;;
74660;SDS011;63191;39.566;2.654;2023-04-01T20:31:43;12.60;;;2.80;;
74660;SDS011;63191;39.566;2.654;2023-04-01T20:37:32;14.80;;;3.20;;
74660;SDS011;63191;39.566;2.654;2023-04-01T20:40:26;14.80;;;3.40;;
74660;SDS011;63191;39.566;2.654;2023-04-01T20:51:46;12.20;;;3.10;;
74660;SDS011;63191;39.566;2.654;2023-04-01T20:54:38;16.50;;;3.30;;
74660;SDS011;63191;39.566;2.654;2023-04-01T20:57:34;17.60;;;3.10;;
74660;SDS011;63191;39.566;2.654;2023-04-01T21:00:36;11.90;;;3.10;;
74660;SDS011;63191;39.566;2.654;2023-04-01T21:08:52;15.10;;;3.30;;
74660;SDS011;63191;39.566;2.654;2023-04-01T21:13:02;10.50;;;2.40;;
74660;SDS011;63191;39.566;2.654;2023-04-01T21:17:47;7.50;;;1.60;;
74660;SDS011;63191;39.566;2.654;2023-04-01T21:20:45;16.00;;;2.80;;
74660;SDS011;63191;39.566;2.654;2023-04-01T21:33:02;15.20;;;3.60;;
74660;SDS011;63191;39.566;2.654;2023-04-01T21:39:22;13.70;;;3.30;;
74660;SDS011;63191;39.566;2.654;2023-04-01T21:47:34;11.00;;;2.80;;
74660;SDS011;63191;39.566;2.654;2023-04-01T21:50:39;19.00;;;3.70;;
74660;SDS011;63191;39.566;2.654;2023-04-01T22:02:03;16.50;;;3.50;;
74660;SDS011;63191;39.566;2.654;2023-04-01T22:13:53;2.80;;;0.40;;
74660;SDS011;63191;39.566;2.654;2023-04-01T22:19:12;2.20;;;0.30;;
74660;SDS011;63191;39.566;2.654;2023-04-01T22:21:56;2.30;;;0.20;;
74660;SDS011;63191;39.566;2.654;2023-04-01T22:30:17;2.90;;;0.30;;
74660;SDS011;63191;39.566;2.654;2023-04-01T22:33:16;4.60;;;0.40;;
74660;SDS011;63191;39.566;2.654;2023-04-01T22:39:26;3.40;;;0.40;;
74660;SDS011;63191;39.566;2.654;2023-04-01T22:42:24;4.30;;;0.50;;
74660;SDS011;63191;39.566;2.654;2023-04-01T22:44:59;4.00;;;0.40;;
74660;SDS011;63191;39.566;2.654;2023-04-01T22:47:57;2.60;;;0.30;;
74660;SDS011;63191;39.566;2.654;2023-04-01T22:54:00;6.10;;;0.60;;
74660;SDS011;63191;39.566;2.654;2023-04-01T22:56:36;3.30;;;0.20;;
74660;SDS011;63191;39.566;2.654;2023-04-01T22:59:11;3.00;;;0.20;;
74660;SDS011;63191;39.566;2.654;2023-04-01T23:02:04;5.20;;;0.60;;
74660;SDS011;63191;39.566;2.654;2023-04-01T23:04:39;2.60;;;0.20;;
74660;SDS011;63191;39.566;2.654;2023-04-01T23:10:26;5.60;;;0.30;;
74660;SDS011;63191;39.566;2.654;2023-04-01T23:13:18;4.10;;;0.40;;
74660;SDS011;63191;39.566;2.654;2023-04-01T23:15:48;3.10;;;0.30;;
74660;SDS011;63191;39.566;2.654;2023-04-01T23:18:27;6.00;;;0.30;;
74660;SDS011;63191;39.566;2.654;2023-04-01T23:21:07;3.50;;;0.50;;
74660;SDS011;63191;39.566;2.654;2023-04-01T23:27:28;1.90;;;0.10;;
74660;SDS011;63191;39.566;2.654;2023-04-01T23:36:02;1.70;;;0.30;;
74660;SDS011;63191;39.566;2.654;2023-04-01T23:38:42;2.10;;;0.10;;
74660;SDS011;63191;39.566;2.654;2023-04-01T23:41:27;3.10;;;0.10;;
74660;SDS011;63191;39.566;2.654;2023-04-01T23:44:02;3.90;;;0.40;;
74660;SDS011;63191;39.566;2.654;2023-04-01T23:46:30;3.30;;;0.20;;
74660;SDS011;63191;39.566;2.654;2023-04-01T23:49:00;4.80;;;0.70;;
74660;SDS011;63191;39.566;2.654;2023-04-01T23:51:39;4.70;;;0.40;;
74660;SDS011;63191;39.566;2.654;2023-04-01T23:54:32;3.80;;;0.20;;
74660;SDS011;63191;39.566;2.654;2023-04-01T23:57:05;2.70;;;0.10;;
74660;SDS011;63191;39.566;2.654;2023-04-01T23:59:36;1.70;;;0.20;;
